createdAt,value
2022-11-06T00:00:08.724Z,7.96
2022-11-06T00:04:10.300Z,7.94
2022-11-06T00:08:12.195Z,7.89
2022-11-06T00:12:14.099Z,7.85
2022-11-06T00:16:15.682Z,7.82
2022-11-06T00:20:17.576Z,7.77
2022-11-06T00:24:19.079Z,7.76
2022-11-06T00:28:20.731Z,7.73
2022-11-06T00:32:22.412Z,7.70
2022-11-06T00:36:25.042Z,7.67
2022-11-06T00:40:26.584Z,7.62
2022-11-06T00:44:28.269Z,7.62
2022-11-06T00:48:29.918Z,7.55
2022-11-06T00:52:31.460Z,7.54
2022-11-06T00:56:33.950Z,7.50
2022-11-06T01:00:35.637Z,7.48
2022-11-06T01:04:37.205Z,7.45
2022-11-06T01:08:39.437Z,7.44
2022-11-06T01:12:40.977Z,7.44
2022-11-06T01:16:43.143Z,7.39
2022-11-06T01:20:44.742Z,7.36
2022-11-06T01:24:46.374Z,7.39
2022-11-06T01:28:48.441Z,7.36
2022-11-06T01:32:49.969Z,7.39
2022-11-06T01:36:51.483Z,7.37
2022-11-06T01:40:53.491Z,7.37
2022-11-06T01:45:26.260Z,7.36
2022-11-06T01:49:32.052Z,7.34
2022-11-06T01:53:34.469Z,7.23
2022-11-06T01:57:36.022Z,7.18
2022-11-06T02:01:37.685Z,7.09
2022-11-06T02:05:40.319Z,7.04
2022-11-06T02:09:41.804Z,7.00
2022-11-06T02:14:02.681Z,6.97
2022-11-06T02:18:36.076Z,6.97
2022-11-06T02:22:49.637Z,6.96
2022-11-06T02:27:02.717Z,6.91
2022-11-06T02:31:10.243Z,6.90
2022-11-06T02:35:24.005Z,6.86
2022-11-06T02:39:28.014Z,6.83
2022-11-06T02:43:39.161Z,6.82
2022-11-06T02:47:42.713Z,6.81
2022-11-06T02:51:51.213Z,6.78
2022-11-06T02:55:57.744Z,6.73
2022-11-06T03:00:09.233Z,6.72
2022-11-06T03:04:22.985Z,6.73
2022-11-06T03:08:38.423Z,6.72
2022-11-06T03:12:55.888Z,6.71
2022-11-06T03:17:17.614Z,6.64
2022-11-06T03:21:38.293Z,6.61
2022-11-06T03:26:08.301Z,6.61
2022-11-06T03:30:16.336Z,6.60
2022-11-06T03:34:29.704Z,6.60
2022-11-06T03:38:40.938Z,6.57
2022-11-06T03:42:45.526Z,6.54
2022-11-06T03:46:55.873Z,6.51
2022-11-06T03:51:02.555Z,6.46
2022-11-06T03:55:19.847Z,6.45
2022-11-06T03:59:27.006Z,6.42
2022-11-06T04:03:34.253Z,6.39
2022-11-06T04:07:41.481Z,6.38
2022-11-06T04:12:04.488Z,6.36
2022-11-06T04:16:08.510Z,6.35
2022-11-06T04:20:34.297Z,6.30
2022-11-06T04:25:09.951Z,6.28
2022-11-06T04:29:23.288Z,6.21
2022-11-06T04:33:50.182Z,6.20
2022-11-06T04:38:14.279Z,6.20
2022-11-06T04:42:26.492Z,6.20
2022-11-06T04:46:33.694Z,6.24
2022-11-06T04:50:47.835Z,6.24
2022-11-06T04:54:49.837Z,6.27
2022-11-06T04:58:51.336Z,6.27
2022-11-06T05:02:52.990Z,6.27
2022-11-06T05:06:54.773Z,6.25
2022-11-06T05:10:56.394Z,6.24
2022-11-06T05:14:57.863Z,6.20
2022-11-06T05:18:59.382Z,6.16
2022-11-06T05:23:01.284Z,6.14
2022-11-06T05:27:02.951Z,6.05
2022-11-06T05:31:05.055Z,5.96
2022-11-06T05:35:06.827Z,5.93
2022-11-06T05:39:08.467Z,5.90
2022-11-06T05:43:10.000Z,5.83
2022-11-06T05:47:11.533Z,5.80
2022-11-06T05:51:13.137Z,5.74
2022-11-06T05:55:15.484Z,5.67
2022-11-06T05:59:17.129Z,5.65
2022-11-06T06:03:18.652Z,5.62
2022-11-06T06:07:20.192Z,5.58
2022-11-06T06:11:21.741Z,5.56
2022-11-06T06:15:23.252Z,5.55
2022-11-06T06:19:24.741Z,5.51
2022-11-06T06:23:26.421Z,5.49
2022-11-06T06:27:27.949Z,5.45
2022-11-06T06:31:29.612Z,5.45
2022-11-06T06:35:31.809Z,5.44
2022-11-06T06:39:33.451Z,5.45
2022-11-06T06:43:35.770Z,5.42
2022-11-06T06:47:37.285Z,5.44
2022-11-06T06:51:38.850Z,5.45
2022-11-06T06:55:41.946Z,5.49
2022-11-06T06:59:43.468Z,5.51
2022-11-06T07:03:44.992Z,5.52
2022-11-06T07:07:47.252Z,5.56
2022-11-06T07:11:48.813Z,5.58
2022-11-06T07:15:50.306Z,5.62
2022-11-06T07:19:51.890Z,5.63
2022-11-06T07:23:53.481Z,5.67
2022-11-06T07:27:59.162Z,5.69
2022-11-06T07:32:03.487Z,5.78
2022-11-06T07:36:11.050Z,5.85
2022-11-06T07:40:13.721Z,5.93
2022-11-06T07:44:15.322Z,5.99
2022-11-06T07:48:16.956Z,6.06
2022-11-06T07:52:19.043Z,6.13
2022-11-06T07:56:20.574Z,6.21
2022-11-06T08:00:22.093Z,6.32
2022-11-06T08:04:23.591Z,6.40
2022-11-06T08:08:25.247Z,6.43
2022-11-06T08:12:26.763Z,6.53
2022-11-06T08:16:28.751Z,6.64
2022-11-06T08:20:30.365Z,6.72
2022-11-06T08:24:32.040Z,6.81
2022-11-06T08:28:34.344Z,6.86
2022-11-06T08:32:35.921Z,6.91
2022-11-06T08:36:50.138Z,6.99
2022-11-06T08:40:53.867Z,7.05
2022-11-06T08:44:55.556Z,7.11
2022-11-06T08:48:57.274Z,7.11
2022-11-06T08:53:01.025Z,7.23
2022-11-06T08:57:02.631Z,7.21
2022-11-06T09:01:05.334Z,7.19
2022-11-06T09:05:07.165Z,7.21
2022-11-06T09:09:08.666Z,7.29
2022-11-06T09:13:11.790Z,7.36
2022-11-06T09:17:13.714Z,7.47
2022-11-06T09:21:15.665Z,7.66
2022-11-06T09:25:17.328Z,7.82
2022-11-06T09:29:18.878Z,7.94
2022-11-06T09:33:20.902Z,8.06
2022-11-06T09:37:23.003Z,8.21
2022-11-06T09:41:39.754Z,8.37
2022-11-06T09:45:41.618Z,8.49
2022-11-06T09:49:51.594Z,8.64
2022-11-06T09:54:19.885Z,8.80
2022-11-06T09:58:23.430Z,9.03
2022-11-06T10:02:34.090Z,9.13
2022-11-06T10:06:35.947Z,9.19
2022-11-06T10:10:50.043Z,9.20
2022-11-06T10:15:12.554Z,9.22
2022-11-06T10:19:37.217Z,9.22
2022-11-06T10:23:50.253Z,9.24
2022-11-06T10:28:09.321Z,9.31
2022-11-06T10:32:25.917Z,9.32
2022-11-06T10:36:37.160Z,9.37
2022-11-06T10:40:39.732Z,9.42
2022-11-06T10:44:52.851Z,9.42
2022-11-06T10:49:03.292Z,9.52
2022-11-06T10:53:51.660Z,9.58
2022-11-06T10:57:56.940Z,9.63
2022-11-06T11:01:58.644Z,9.68
2022-11-06T11:06:01.770Z,9.73
2022-11-06T11:10:28.661Z,9.78
2022-11-06T11:14:31.950Z,9.88
2022-11-06T11:18:34.225Z,9.96
2022-11-06T11:22:35.934Z,9.99
2022-11-06T11:26:42.988Z,10.09
2022-11-06T11:30:51.667Z,10.17
2022-11-06T11:34:56.780Z,10.25
2022-11-06T11:38:58.781Z,10.38
2022-11-06T11:43:17.849Z,10.51
2022-11-06T11:47:24.454Z,10.66
2022-11-06T11:51:37.422Z,10.66
2022-11-06T11:55:46.060Z,10.70
2022-11-06T11:59:52.740Z,10.72
2022-11-06T12:03:54.399Z,10.76
2022-11-06T12:07:57.902Z,10.81
2022-11-06T12:12:01.369Z,10.91
2022-11-06T12:16:04.827Z,11.02
2022-11-06T12:20:13.920Z,11.12
2022-11-06T12:25:07.514Z,11.20
2022-11-06T12:29:18.515Z,11.28
2022-11-06T12:33:30.885Z,11.33
2022-11-06T12:38:18.334Z,11.38
2022-11-06T12:42:23.836Z,11.45
2022-11-06T12:46:43.689Z,11.53
2022-11-06T12:50:59.358Z,11.54
2022-11-06T12:55:10.049Z,11.59
2022-11-06T12:59:33.363Z,11.60
2022-11-06T13:03:38.034Z,11.60
2022-11-06T13:07:52.527Z,11.60
2022-11-06T13:12:35.908Z,11.60
2022-11-06T13:17:02.165Z,11.63
2022-11-06T13:21:25.400Z,11.64
2022-11-06T13:25:39.701Z,11.66
2022-11-06T13:29:42.614Z,11.66
2022-11-06T13:33:49.468Z,11.66
2022-11-06T13:37:51.214Z,11.67
2022-11-06T13:41:54.824Z,11.62
2022-11-06T13:46:04.953Z,11.57
2022-11-06T13:50:19.682Z,11.53
2022-11-06T13:54:36.476Z,11.46
2022-11-06T13:58:56.319Z,11.44
2022-11-06T14:03:00.862Z,11.41
2022-11-06T14:07:05.300Z,11.38
2022-11-06T14:11:12.776Z,11.35
2022-11-06T14:15:28.577Z,11.35
2022-11-06T14:19:30.408Z,11.38
2022-11-06T14:23:31.955Z,11.45
2022-11-06T14:27:36.444Z,11.54
2022-11-06T14:32:12.047Z,11.60
2022-11-06T14:36:26.980Z,11.59
2022-11-06T14:40:32.415Z,11.51
2022-11-06T14:44:41.387Z,11.45
2022-11-06T14:48:46.594Z,11.39
2022-11-06T14:53:23.041Z,11.33
2022-11-06T14:57:46.703Z,11.26
2022-11-06T15:02:05.711Z,11.19
2022-11-06T15:06:16.275Z,11.13
2022-11-06T15:10:42.784Z,11.11
2022-11-06T15:14:52.317Z,11.06
2022-11-06T15:18:54.818Z,11.05
2022-11-06T15:23:03.035Z,11.02
2022-11-06T15:27:27.402Z,11.01
2022-11-06T15:31:30.366Z,10.99
2022-11-06T15:35:35.139Z,10.99
2022-11-06T15:39:39.474Z,10.98
2022-11-06T15:43:44.499Z,10.95
2022-11-06T15:47:54.108Z,10.93
2022-11-06T15:52:03.026Z,10.93
2022-11-06T15:56:09.020Z,10.88
2022-11-06T16:00:18.923Z,10.87
2022-11-06T16:04:25.404Z,10.84
2022-11-06T16:08:29.058Z,10.84
2022-11-06T16:12:30.759Z,10.83
2022-11-06T16:16:34.219Z,10.80
2022-11-06T16:20:35.794Z,10.80
2022-11-06T16:24:46.562Z,10.78
2022-11-06T16:28:50.009Z,10.78
2022-11-06T16:32:51.567Z,10.80
2022-11-06T16:36:59.668Z,10.80
2022-11-06T16:41:01.617Z,10.80
2022-11-06T16:45:19.540Z,10.73
2022-11-06T16:49:35.640Z,10.68
2022-11-06T16:53:54.526Z,10.66
2022-11-06T16:57:59.061Z,10.60
2022-11-06T17:02:01.038Z,10.57
2022-11-06T17:06:02.703Z,10.55
2022-11-06T17:10:38.651Z,10.51
2022-11-06T17:14:44.804Z,10.49
2022-11-06T17:18:49.637Z,10.49
2022-11-06T17:22:51.162Z,10.46
2022-11-06T17:26:53.380Z,10.43
2022-11-06T17:30:55.148Z,10.43
2022-11-06T17:34:56.682Z,10.39
2022-11-06T17:38:58.857Z,10.39
2022-11-06T17:43:00.635Z,10.39
2022-11-06T17:47:02.139Z,10.39
2022-11-06T17:51:22.472Z,10.38
2022-11-06T17:55:24.062Z,10.38
2022-11-06T17:59:26.034Z,10.36
2022-11-06T18:03:31.171Z,10.36
2022-11-06T18:07:35.386Z,10.35
2022-11-06T18:11:36.913Z,10.35
2022-11-06T18:15:38.499Z,10.36
2022-11-06T18:19:40.469Z,10.36
2022-11-06T18:23:42.034Z,10.36
2022-11-06T18:27:43.543Z,10.38
2022-11-06T18:31:45.156Z,10.38
2022-11-06T18:35:46.761Z,10.38
2022-11-06T18:39:48.300Z,10.39
2022-11-06T18:43:49.921Z,10.42
2022-11-06T18:47:51.444Z,10.39
2022-11-06T18:51:53.010Z,10.42
2022-11-06T18:55:54.541Z,10.42
2022-11-06T18:59:56.078Z,10.42
2022-11-06T19:03:57.724Z,10.39
2022-11-06T19:08:00.501Z,10.35
2022-11-06T19:12:02.798Z,10.31
2022-11-06T19:16:05.941Z,10.31
2022-11-06T19:20:10.825Z,10.31
2022-11-06T19:24:15.506Z,10.32
2022-11-06T19:28:17.611Z,10.32
2022-11-06T19:32:19.140Z,10.35
2022-11-06T19:36:20.810Z,10.36
2022-11-06T19:40:22.429Z,10.38
2022-11-06T19:44:23.967Z,10.39
2022-11-06T19:48:25.648Z,10.42
2022-11-06T19:52:42.158Z,10.42
2022-11-06T19:57:29.443Z,10.42
2022-11-06T20:01:12.856Z,10.42
2022-11-06T20:05:14.455Z,10.39
2022-11-06T20:09:16.095Z,10.43
2022-11-06T20:13:17.686Z,10.36
2022-11-06T20:17:19.272Z,10.32
2022-11-06T20:21:22.218Z,10.25
2022-11-06T20:25:23.818Z,10.18
2022-11-06T20:29:25.673Z,10.14
2022-11-06T20:33:27.204Z,10.10
2022-11-06T20:37:29.135Z,10.04
2022-11-06T20:41:30.990Z,10.02
2022-11-06T20:45:37.019Z,10.06
2022-11-06T20:49:38.846Z,10.10
2022-11-06T20:53:40.493Z,10.16
2022-11-06T20:57:42.089Z,10.17
2022-11-06T21:01:43.858Z,10.20
2022-11-06T21:05:45.470Z,10.20
2022-11-06T21:09:47.094Z,10.25
2022-11-06T21:13:52.019Z,10.24
2022-11-06T21:17:53.493Z,10.25
2022-11-06T21:21:58.470Z,10.26
2022-11-06T21:26:05.587Z,10.28
2022-11-06T21:30:07.866Z,10.29
2022-11-06T21:34:09.431Z,10.29
2022-11-06T21:38:11.079Z,10.28
2022-11-06T21:42:12.608Z,10.31
2022-11-06T21:46:14.993Z,10.31
2022-11-06T21:50:28.228Z,10.29
2022-11-06T21:54:50.188Z,10.22
2022-11-06T21:58:55.891Z,10.14
2022-11-06T22:02:57.705Z,10.10
2022-11-06T22:06:59.270Z,10.09
2022-11-06T22:11:19.010Z,10.07
2022-11-06T22:15:20.610Z,10.06
2022-11-06T22:19:22.178Z,10.07
2022-11-06T22:23:23.714Z,10.09
2022-11-06T22:27:25.288Z,10.13
2022-11-06T22:31:27.840Z,10.16
2022-11-06T22:35:29.442Z,10.18
2022-11-06T22:39:30.987Z,10.20
2022-11-06T22:43:34.011Z,10.25
2022-11-06T22:47:35.650Z,10.25
2022-11-06T22:51:37.225Z,10.25
2022-11-06T22:55:38.796Z,10.29
2022-11-06T22:59:40.345Z,10.34
2022-11-06T23:03:41.881Z,10.38
2022-11-06T23:07:43.386Z,10.39
2022-11-06T23:11:46.779Z,10.43
2022-11-06T23:15:48.868Z,10.46
2022-11-06T23:19:50.592Z,10.47
2022-11-06T23:23:52.104Z,10.46
2022-11-06T23:27:53.778Z,10.42
2022-11-06T23:31:55.289Z,10.36
2022-11-06T23:35:56.787Z,10.32
2022-11-06T23:39:58.297Z,10.26
2022-11-06T23:44:00.855Z,10.22
2022-11-06T23:48:08.319Z,10.17
2022-11-06T23:52:10.167Z,10.13
2022-11-06T23:56:13.026Z,10.07
